sensor_id;sensor_type;location;lat;lon;timestamp;pressure;altitude;pressure_sealevel;temperature;humidity
49451;BME280;35336;48.400;10.886;2023-05-20T00:00:15;96276.66;;;10.98;89.52
49451;BME280;35336;48.400;10.886;2023-05-20T00:00:30;96290.03;;;11.04;89.45
49451;BME280;35336;48.400;10.886;2023-05-20T00:00:46;96273.94;;;10.91;89.51
49451;BME280;35336;48.400;10.886;2023-05-20T00:01:01;96277.03;;;10.94;89.67
49451;BME280;35336;48.400;10.886;2023-05-20T00:01:16;96282.63;;;11.00;89.58
49451;BME280;35336;48.400;10.886;2023-05-20T00:01:32;96270.03;;;10.87;89.91
49451;BME280;35336;48.400;10.886;2023-05-20T00:01:47;96283.63;;;10.99;89.78
49451;BME280;35336;48.400;10.886;2023-05-20T00:02:02;96285.47;;;10.98;89.75
49451;BME280;35336;48.400;10.886;2023-05-20T00:02:18;96276.84;;;10.96;89.73
49451;BME280;35336;48.400;10.886;2023-05-20T00:02:33;96282.63;;;11.00;89.39
49451;BME280;35336;48.400;10.886;2023-05-20T00:02:48;96289.19;;;11.04;89.51
49451;BME280;35336;48.400;10.886;2023-05-20T00:03:04;96293.06;;;11.01;89.80
49451;BME280;35336;48.400;10.886;2023-05-20T00:03:19;96277.88;;;10.95;89.65
49451;BME280;35336;48.400;10.886;2023-05-20T00:03:34;96284.03;;;10.95;90.12
49451;BME280;35336;48.400;10.886;2023-05-20T00:03:49;96288.34;;;10.96;90.25
49451;BME280;35336;48.400;10.886;2023-05-20T00:04:05;96268.41;;;10.86;89.86
49451;BME280;35336;48.400;10.886;2023-05-20T00:04:20;96278.09;;;11.00;90.19
49451;BME280;35336;48.400;10.886;2023-05-20T00:04:35;96284.44;;;10.99;89.59
49451;BME280;35336;48.400;10.886;2023-05-20T00:04:51;96290.41;;;11.01;89.95
49451;BME280;35336;48.400;10.886;2023-05-20T00:05:06;96295.78;;;11.08;89.54
49451;BME280;35336;48.400;10.886;2023-05-20T00:05:22;96289.38;;;11.09;89.67
49451;BME280;35336;48.400;10.886;2023-05-20T00:05:37;96287.78;;;11.08;89.49
49451;BME280;35336;48.400;10.886;2023-05-20T00:05:53;96283.84;;;11.04;89.36
49451;BME280;35336;48.400;10.886;2023-05-20T00:06:08;96290.44;;;11.08;89.59
49451;BME280;35336;48.400;10.886;2023-05-20T00:06:23;96283.03;;;11.03;89.65
49451;BME280;35336;48.400;10.886;2023-05-20T00:06:39;96282.44;;;11.08;89.38
49451;BME280;35336;48.400;10.886;2023-05-20T00:06:54;96284.91;;;11.09;89.67
49451;BME280;35336;48.400;10.886;2023-05-20T00:07:09;96291.28;;;11.15;89.37
49451;BME280;35336;48.400;10.886;2023-05-20T00:07:25;96288.78;;;11.13;89.40
49451;BME280;35336;48.400;10.886;2023-05-20T00:07:40;96298.44;;;11.15;89.54
49451;BME280;35336;48.400;10.886;2023-05-20T00:07:56;96285.09;;;11.08;89.29
49451;BME280;35336;48.400;10.886;2023-05-20T00:08:11;96276.25;;;11.01;89.10
49451;BME280;35336;48.400;10.886;2023-05-20T00:08:26;96291.47;;;11.13;89.30
49451;BME280;35336;48.400;10.886;2023-05-20T00:08:41;96299.28;;;11.15;89.41
49451;BME280;35336;48.400;10.886;2023-05-20T00:08:57;96280.38;;;11.10;89.17
49451;BME280;35336;48.400;10.886;2023-05-20T00:09:12;96292.91;;;11.16;89.13
49451;BME280;35336;48.400;10.886;2023-05-20T00:09:27;96288.63;;;11.15;89.11
49451;BME280;35336;48.400;10.886;2023-05-20T00:09:43;96281.38;;;11.09;89.14
49451;BME280;35336;48.400;10.886;2023-05-20T00:09:59;96285.91;;;11.08;89.38
49451;BME280;35336;48.400;10.886;2023-05-20T00:10:14;96276.47;;;11.06;89.14
49451;BME280;35336;48.400;10.886;2023-05-20T00:10:29;96277.69;;;11.03;89.20
49451;BME280;35336;48.400;10.886;2023-05-20T00:10:45;96292.91;;;11.16;89.32
49451;BME280;35336;48.400;10.886;2023-05-20T00:11:00;96297.03;;;11.19;89.15
49451;BME280;35336;48.400;10.886;2023-05-20T00:11:15;96288.41;;;11.17;89.19
49451;BME280;35336;48.400;10.886;2023-05-20T00:11:31;96284.72;;;11.18;89.25
49451;BME280;35336;48.400;10.886;2023-05-20T00:11:46;96283.28;;;11.15;89.28
49451;BME280;35336;48.400;10.886;2023-05-20T00:12:01;96281.81;;;11.12;89.23
49451;BME280;35336;48.400;10.886;2023-05-20T00:12:17;96286.75;;;11.16;89.29
49451;BME280;35336;48.400;10.886;2023-05-20T00:12:32;96285.91;;;11.08;89.23
49451;BME280;35336;48.400;10.886;2023-05-20T00:12:47;96283.47;;;11.07;89.09
49451;BME280;35336;48.400;10.886;2023-05-20T00:13:03;96281.81;;;11.06;89.24
49451;BME280;35336;48.400;10.886;2023-05-20T00:13:18;96280.97;;;11.05;89.60
49451;BME280;35336;48.400;10.886;2023-05-20T00:13:33;96282.63;;;11.06;89.67
49451;BME280;35336;48.400;10.886;2023-05-20T00:13:49;96278.72;;;11.09;89.59
49451;BME280;35336;48.400;10.886;2023-05-20T00:14:04;96287.34;;;11.11;89.56
49451;BME280;35336;48.400;10.886;2023-05-20T00:14:19;96277.69;;;11.03;89.61
49451;BME280;35336;48.400;10.886;2023-05-20T00:14:35;96273.38;;;11.02;89.55
49451;BME280;35336;48.400;10.886;2023-05-20T00:14:50;96285.91;;;11.08;89.79
49451;BME280;35336;48.400;10.886;2023-05-20T00:15:06;96272.13;;;10.98;89.65
49451;BME280;35336;48.400;10.886;2023-05-20T00:15:21;96281.78;;;10.99;89.93
49451;BME280;35336;48.400;10.886;2023-05-20T00:15:37;96276.47;;;11.06;89.90
49451;BME280;35336;48.400;10.886;2023-05-20T00:15:52;96281.59;;;11.07;89.89
49451;BME280;35336;48.400;10.886;2023-05-20T00:16:07;96273.38;;;11.02;89.96
49451;BME280;35336;48.400;10.886;2023-05-20T00:16:23;96284.25;;;11.07;89.78
49451;BME280;35336;48.400;10.886;2023-05-20T00:16:38;96284.25;;;11.07;89.90
49451;BME280;35336;48.400;10.886;2023-05-20T00:16:53;96284.25;;;11.07;89.98
49451;BME280;35336;48.400;10.886;2023-05-20T00:17:09;96265.34;;;10.95;90.23
49451;BME280;35336;48.400;10.886;2023-05-20T00:17:24;96266.59;;;11.00;89.77
49451;BME280;35336;48.400;10.886;2023-05-20T00:17:39;96273.38;;;11.02;90.14
49451;BME280;35336;48.400;10.886;2023-05-20T00:17:55;96267.41;;;11.00;89.85
49451;BME280;35336;48.400;10.886;2023-05-20T00:18:10;96272.97;;;10.99;89.83
49451;BME280;35336;48.400;10.886;2023-05-20T00:18:26;96267.59;;;10.92;90.07
49451;BME280;35336;48.400;10.886;2023-05-20T00:18:41;96271.94;;;11.00;90.03
49451;BME280;35336;48.400;10.886;2023-05-20T00:18:56;96271.53;;;10.96;90.27
49451;BME280;35336;48.400;10.886;2023-05-20T00:19:11;96264.50;;;10.88;90.37
49451;BME280;35336;48.400;10.886;2023-05-20T00:19:27;96280.97;;;10.99;90.51
49451;BME280;35336;48.400;10.886;2023-05-20T00:19:42;96262.47;;;10.90;90.27
49451;BME280;35336;48.400;10.886;2023-05-20T00:19:57;96272.97;;;10.99;90.32
49451;BME280;35336;48.400;10.886;2023-05-20T00:20:13;96281.78;;;10.99;90.66
49451;BME280;35336;48.400;10.886;2023-05-20T00:20:28;96277.47;;;10.98;90.47
49451;BME280;35336;48.400;10.886;2023-05-20T00:20:44;96283.44;;;11.00;90.70
49451;BME280;35336;48.400;10.886;2023-05-20T00:20:59;96280.53;;;11.02;90.66
49451;BME280;35336;48.400;10.886;2023-05-20T00:21:14;96283.03;;;11.03;90.28
49451;BME280;35336;48.400;10.886;2023-05-20T00:21:29;96272.38;;;11.03;90.29
49451;BME280;35336;48.400;10.886;2023-05-20T00:21:45;96280.38;;;11.10;90.01
49451;BME280;35336;48.400;10.886;2023-05-20T00:22:00;96276.47;;;11.06;89.97
49451;BME280;35336;48.400;10.886;2023-05-20T00:22:16;96282.22;;;11.09;90.13
49451;BME280;35336;48.400;10.886;2023-05-20T00:22:31;96280.56;;;11.08;90.31
49451;BME280;35336;48.400;10.886;2023-05-20T00:22:46;96275.03;;;11.03;90.01
49451;BME280;35336;48.400;10.886;2023-05-20T00:23:02;96261.66;;;10.96;90.09
49451;BME280;35336;48.400;10.886;2023-05-20T00:23:17;96282.03;;;11.04;90.05
49451;BME280;35336;48.400;10.886;2023-05-20T00:23:32;96276.44;;;10.99;89.99
49451;BME280;35336;48.400;10.886;2023-05-20T00:23:48;96276.84;;;11.03;90.02
49451;BME280;35336;48.400;10.886;2023-05-20T00:24:03;96277.69;;;11.03;90.35
49451;BME280;35336;48.400;10.886;2023-05-20T00:24:18;96271.09;;;10.99;89.96
49451;BME280;35336;48.400;10.886;2023-05-20T00:24:34;96280.97;;;11.05;90.13
49451;BME280;35336;48.400;10.886;2023-05-20T00:24:49;96280.38;;;11.03;90.46
49451;BME280;35336;48.400;10.886;2023-05-20T00:25:05;96273.81;;;11.06;90.20
49451;BME280;35336;48.400;10.886;2023-05-20T00:25:20;96272.16;;;11.05;90.40
49451;BME280;35336;48.400;10.886;2023-05-20T00:25:35;96280.78;;;11.07;90.35
49451;BME280;35336;48.400;10.886;2023-05-20T00:25:51;96272.78;;;11.07;90.09
49451;BME280;35336;48.400;10.886;2023-05-20T00:26:06;96274.44;;;11.08;90.37
49451;BME280;35336;48.400;10.886;2023-05-20T00:26:22;96264.97;;;11.05;90.37
49451;BME280;35336;48.400;10.886;2023-05-20T00:26:37;96274.44;;;11.08;90.19
49451;BME280;35336;48.400;10.886;2023-05-20T00:26:52;96255.09;;;10.99;90.15
49451;BME280;35336;48.400;10.886;2023-05-20T00:27:08;96276.88;;;11.09;90.28
49451;BME280;35336;48.400;10.886;2023-05-20T00:27:23;96251.81;;;10.97;89.81
49451;BME280;35336;48.400;10.886;2023-05-20T00:27:39;96271.56;;;11.09;90.13
49451;BME280;35336;48.400;10.886;2023-05-20T00:27:54;96270.94;;;11.07;90.19
49451;BME280;35336;48.400;10.886;2023-05-20T00:28:10;96266.59;;;11.06;90.24
49451;BME280;35336;48.400;10.886;2023-05-20T00:28:25;96273.81;;;11.12;90.02
49451;BME280;35336;48.400;10.886;2023-05-20T00:28:40;96272.78;;;11.13;89.66
49451;BME280;35336;48.400;10.886;2023-05-20T00:28:56;96270.13;;;11.13;89.65
49451;BME280;35336;48.400;10.886;2023-05-20T00:29:11;96253.06;;;11.01;89.79
49451;BME280;35336;48.400;10.886;2023-05-20T00:29:26;96265.19;;;11.10;89.78
49451;BME280;35336;48.400;10.886;2023-05-20T00:29:41;96262.91;;;11.07;89.64
49451;BME280;35336;48.400;10.886;2023-05-20T00:29:57;96246.91;;;11.01;89.99
49451;BME280;35336;48.400;10.886;2023-05-20T00:30:12;96266.22;;;11.09;90.05
49451;BME280;35336;48.400;10.886;2023-05-20T00:30:28;96263.72;;;11.01;90.04
49451;BME280;35336;48.400;10.886;2023-05-20T00:30:43;96257.59;;;11.01;90.32
49451;BME280;35336;48.400;10.886;2023-05-20T00:30:58;96268.03;;;11.02;90.40
49451;BME280;35336;48.400;10.886;2023-05-20T00:31:14;96270.28;;;11.05;90.34
49451;BME280;35336;48.400;10.886;2023-05-20T00:31:29;96264.97;;;11.05;90.20
49451;BME280;35336;48.400;10.886;2023-05-20T00:31:44;96270.28;;;11.05;90.43
49451;BME280;35336;48.400;10.886;2023-05-20T00:31:59;96260.25;;;11.01;90.17
49451;BME280;35336;48.400;10.886;2023-05-20T00:32:15;96259.03;;;11.03;90.27
49451;BME280;35336;48.400;10.886;2023-05-20T00:32:30;96260.03;;;11.02;90.41
49451;BME280;35336;48.400;10.886;2023-05-20T00:32:46;96268.25;;;11.07;90.02
49451;BME280;35336;48.400;10.886;2023-05-20T00:33:01;96262.72;;;11.09;90.39
49451;BME280;35336;48.400;10.886;2023-05-20T00:33:16;96272.38;;;11.10;90.29
49451;BME280;35336;48.400;10.886;2023-05-20T00:33:32;96259.03;;;11.03;90.38
49451;BME280;35336;48.400;10.886;2023-05-20T00:33:47;96265.59;;;11.07;90.34
49451;BME280;35336;48.400;10.886;2023-05-20T00:34:02;96257.16;;;11.04;90.02
49451;BME280;35336;48.400;10.886;2023-05-20T00:34:17;96263.56;;;11.09;90.05
49451;BME280;35336;48.400;10.886;2023-05-20T00:34:33;96264.56;;;11.08;90.03
49451;BME280;35336;48.400;10.886;2023-05-20T00:34:57;96253.91;;;11.08;89.71
49451;BME280;35336;48.400;10.886;2023-05-20T00:35:13;96265.63;;;11.14;90.08
49451;BME280;35336;48.400;10.886;2023-05-20T00:35:29;96266.84;;;11.11;89.77
49451;BME280;35336;48.400;10.886;2023-05-20T00:35:44;96254.50;;;11.04;90.03
49451;BME280;35336;48.400;10.886;2023-05-20T00:35:59;96246.50;;;11.04;89.64
49451;BME280;35336;48.400;10.886;2023-05-20T00:36:14;96240.75;;;11.00;89.66
49451;BME280;35336;48.400;10.886;2023-05-20T00:36:30;96255.13;;;11.06;89.89
49451;BME280;35336;48.400;10.886;2023-05-20T00:36:45;96266.63;;;11.13;90.02
49451;BME280;35336;48.400;10.886;2023-05-20T00:37:00;96271.13;;;11.12;89.80
49451;BME280;35336;48.400;10.886;2023-05-20T00:37:15;96255.34;;;11.04;90.27
49451;BME280;35336;48.400;10.886;2023-05-20T00:37:31;96264.56;;;11.08;90.01
49451;BME280;35336;48.400;10.886;2023-05-20T00:37:46;96256.78;;;11.07;90.19
49451;BME280;35336;48.400;10.886;2023-05-20T00:38:01;96262.13;;;11.07;89.90
49451;BME280;35336;48.400;10.886;2023-05-20T00:38:17;96259.63;;;11.05;90.18
49451;BME280;35336;48.400;10.886;2023-05-20T00:38:32;96259.63;;;11.05;90.19
49451;BME280;35336;48.400;10.886;2023-05-20T00:38:47;96267.88;;;11.10;90.09
49451;BME280;35336;48.400;10.886;2023-05-20T00:39:03;96267.03;;;11.10;90.16
49451;BME280;35336;48.400;10.886;2023-05-20T00:39:18;96253.47;;;11.05;90.06
49451;BME280;35336;48.400;10.886;2023-05-20T00:39:33;96267.25;;;11.08;89.96
49451;BME280;35336;48.400;10.886;2023-05-20T00:39:49;96264.16;;;11.05;89.99
49451;BME280;35336;48.400;10.886;2023-05-20T00:40:04;96266.00;;;11.04;90.17
49451;BME280;35336;48.400;10.886;2023-05-20T00:40:20;96260.69;;;11.04;90.19
49451;BME280;35336;48.400;10.886;2023-05-20T00:40:35;96259.63;;;11.05;90.32
49451;BME280;35336;48.400;10.886;2023-05-20T00:40:50;96262.28;;;11.05;90.50
49451;BME280;35336;48.400;10.886;2023-05-20T00:41:06;96258.00;;;11.04;90.35
49451;BME280;35336;48.400;10.886;2023-05-20T00:41:21;96269.09;;;11.08;90.10
49451;BME280;35336;48.400;10.886;2023-05-20T00:41:36;96273.16;;;11.04;90.18
49451;BME280;35336;48.400;10.886;2023-05-20T00:41:51;96264.97;;;11.05;89.96
49451;BME280;35336;48.400;10.886;2023-05-20T00:42:07;96263.94;;;11.06;90.10
49451;BME280;35336;48.400;10.886;2023-05-20T00:42:27;96269.09;;;11.08;90.22
49451;BME280;35336;48.400;10.886;2023-05-20T00:42:42;96264.97;;;11.05;90.04
49451;BME280;35336;48.400;10.886;2023-05-20T00:42:58;96257.59;;;11.01;90.14
49451;BME280;35336;48.400;10.886;2023-05-20T00:43:13;96262.91;;;11.07;89.97
49451;BME280;35336;48.400;10.886;2023-05-20T00:43:28;96268.03;;;11.09;89.93
49451;BME280;35336;48.400;10.886;2023-05-20T00:43:43;96271.13;;;11.12;89.97
49451;BME280;35336;48.400;10.886;2023-05-20T00:43:59;96272.78;;;11.13;90.16
49451;BME280;35336;48.400;10.886;2023-05-20T00:44:14;96252.66;;;11.04;89.77
49451;BME280;35336;48.400;10.886;2023-05-20T00:44:29;96270.34;;;11.19;90.08
49451;BME280;35336;48.400;10.886;2023-05-20T00:44:45;96261.31;;;11.13;89.57
49451;BME280;35336;48.400;10.886;2023-05-20T00:45:00;96262.09;;;11.13;89.79
49451;BME280;35336;48.400;10.886;2023-05-20T00:45:16;96272.41;;;11.17;89.83
49451;BME280;35336;48.400;10.886;2023-05-20T00:45:31;96257.19;;;11.10;89.75
49451;BME280;35336;48.400;10.886;2023-05-20T00:45:47;96261.91;;;11.08;89.55
49451;BME280;35336;48.400;10.886;2023-05-20T00:46:02;96259.63;;;11.05;89.89
49451;BME280;35336;48.400;10.886;2023-05-20T00:46:18;96260.25;;;11.07;89.91
49451;BME280;35336;48.400;10.886;2023-05-20T00:46:34;96265.19;;;11.10;89.63
49451;BME280;35336;48.400;10.886;2023-05-20T00:46:49;96263.94;;;11.06;89.83
49451;BME280;35336;48.400;10.886;2023-05-20T00:47:05;96263.94;;;11.06;89.63
49451;BME280;35336;48.400;10.886;2023-05-20T00:47:25;96265.59;;;11.07;89.98
49451;BME280;35336;48.400;10.886;2023-05-20T00:47:42;96270.53;;;11.10;89.82
49451;BME280;35336;48.400;10.886;2023-05-20T00:47:58;96262.72;;;11.09;89.76
49451;BME280;35336;48.400;10.886;2023-05-20T00:48:13;96269.50;;;11.11;89.96
49451;BME280;35336;48.400;10.886;2023-05-20T00:48:35;96251.81;;;10.97;89.69
49451;BME280;35336;48.400;10.886;2023-05-20T00:48:54;96269.69;;;11.10;89.93
49451;BME280;35336;48.400;10.886;2023-05-20T00:49:09;96270.97;;;11.14;89.90
49451;BME280;35336;48.400;10.886;2023-05-20T00:49:25;96269.09;;;11.15;89.71
49451;BME280;35336;48.400;10.886;2023-05-20T00:49:41;96262.53;;;11.10;89.97
49451;BME280;35336;48.400;10.886;2023-05-20T00:49:56;96273.03;;;11.19;89.96
49451;BME280;35336;48.400;10.886;2023-05-20T00:50:12;96258.63;;;11.13;89.41
49451;BME280;35336;48.400;10.886;2023-05-20T00:50:28;96270.75;;;11.16;89.62
49451;BME280;35336;48.400;10.886;2023-05-20T00:50:43;96266.22;;;11.09;89.46
49451;BME280;35336;48.400;10.886;2023-05-20T00:50:59;96273.41;;;11.16;89.38
49451;BME280;35336;48.400;10.886;2023-05-20T00:51:14;96272.78;;;11.13;89.78
49451;BME280;35336;48.400;10.886;2023-05-20T00:51:29;96264.19;;;11.11;89.67
49451;BME280;35336;48.400;10.886;2023-05-20T00:51:46;96267.03;;;11.10;89.48
49451;BME280;35336;48.400;10.886;2023-05-20T00:52:01;96263.56;;;11.09;89.78
49451;BME280;35336;48.400;10.886;2023-05-20T00:52:17;96266.84;;;11.11;89.73
49451;BME280;35336;48.400;10.886;2023-05-20T00:52:34;96257.19;;;11.10;90.00
49451;BME280;35336;48.400;10.886;2023-05-20T00:52:50;96269.09;;;11.15;89.59
49451;BME280;35336;48.400;10.886;2023-05-20T00:53:05;96249.78;;;11.06;89.80
49451;BME280;35336;48.400;10.886;2023-05-20T00:53:21;96275.28;;;11.15;89.80
49451;BME280;35336;48.400;10.886;2023-05-20T00:53:37;96265.63;;;11.14;89.63
49451;BME280;35336;48.400;10.886;2023-05-20T00:53:53;96267.44;;;11.13;89.89
49451;BME280;35336;48.400;10.886;2023-05-20T00:54:09;96252.88;;;11.09;89.62
49451;BME280;35336;48.400;10.886;2023-05-20T00:54:24;96255.72;;;11.01;89.77
49451;BME280;35336;48.400;10.886;2023-05-20T00:54:40;96274.44;;;11.15;89.75
49451;BME280;35336;48.400;10.886;2023-05-20T00:54:57;96274.44;;;11.15;89.40
49451;BME280;35336;48.400;10.886;2023-05-20T00:55:12;96270.75;;;11.16;89.78
49451;BME280;35336;48.400;10.886;2023-05-20T00:55:28;96259.66;;;11.12;89.82
49451;BME280;35336;48.400;10.886;2023-05-20T00:55:43;96275.69;;;11.19;89.74
49451;BME280;35336;48.400;10.886;2023-05-20T00:55:59;96262.75;;;11.16;89.83
49451;BME280;35336;48.400;10.886;2023-05-20T00:56:14;96265.44;;;11.22;89.60
49451;BME280;35336;48.400;10.886;2023-05-20T00:56:30;96268.91;;;11.23;89.18
49451;BME280;35336;48.400;10.886;2023-05-20T00:56:46;96266.22;;;11.16;89.10
49451;BME280;35336;48.400;10.886;2023-05-20T00:57:04;96248.56;;;11.08;89.55
49451;BME280;35336;48.400;10.886;2023-05-20T00:57:19;96266.63;;;11.20;89.54
49451;BME280;35336;48.400;10.886;2023-05-20T00:57:34;96261.72;;;11.17;89.54
49451;BME280;35336;48.400;10.886;2023-05-20T00:57:51;96258.41;;;11.15;89.19
49451;BME280;35336;48.400;10.886;2023-05-20T00:58:07;96252.66;;;11.11;89.42
49451;BME280;35336;48.400;10.886;2023-05-20T00:58:22;96260.88;;;11.09;89.33
49451;BME280;35336;48.400;10.886;2023-05-20T00:58:38;96270.13;;;11.13;89.34
49451;BME280;35336;48.400;10.886;2023-05-20T00:58:54;96269.09;;;11.15;89.54
49451;BME280;35336;48.400;10.886;2023-05-20T00:59:10;96259.84;;;11.04;89.42
49451;BME280;35336;48.400;10.886;2023-05-20T00:59:26;96265.19;;;11.10;89.64
49451;BME280;35336;48.400;10.886;2023-05-20T00:59:41;96260.03;;;11.09;89.32
49451;BME280;35336;48.400;10.886;2023-05-20T00:59:57;96246.06;;;11.00;89.48
49451;BME280;35336;48.400;10.886;2023-05-20T01:00:13;96267.25;;;11.08;89.59
49451;BME280;35336;48.400;10.886;2023-05-20T01:00:28;96246.06;;;11.00;89.41
49451;BME280;35336;48.400;10.886;2023-05-20T01:00:44;96252.88;;;11.09;89.65
49451;BME280;35336;48.400;10.886;2023-05-20T01:00:59;96264.59;;;11.15;89.54
49451;BME280;35336;48.400;10.886;2023-05-20T01:01:15;96261.69;;;11.10;89.49
49451;BME280;35336;48.400;10.886;2023-05-20T01:01:30;96244.03;;;11.02;89.46
49451;BME280;35336;48.400;10.886;2023-05-20T01:01:45;96266.63;;;11.13;89.28
49451;BME280;35336;48.400;10.886;2023-05-20T01:02:04;96269.94;;;11.15;89.43
49451;BME280;35336;48.400;10.886;2023-05-20T01:02:20;96257.38;;;11.09;89.47
49451;BME280;35336;48.400;10.886;2023-05-20T01:02:35;96251.44;;;11.07;89.22
49451;BME280;35336;48.400;10.886;2023-05-20T01:02:51;96258.84;;;11.11;89.29
49451;BME280;35336;48.400;10.886;2023-05-20T01:03:06;96257.19;;;11.10;89.41
49451;BME280;35336;48.400;10.886;2023-05-20T01:03:22;96245.25;;;11.06;89.21
49451;BME280;35336;48.400;10.886;2023-05-20T01:03:38;96263.78;;;11.21;89.22
49451;BME280;35336;48.400;10.886;2023-05-20T01:03:54;96258.63;;;11.13;89.25
49451;BME280;35336;48.400;10.886;2023-05-20T01:04:09;96252.66;;;11.11;89.40
49451;BME280;35336;48.400;10.886;2023-05-20T01:04:25;96258.41;;;11.15;89.20
49451;BME280;35336;48.400;10.886;2023-05-20T01:04:41;96266.22;;;11.09;89.41
49451;BME280;35336;48.400;10.886;2023-05-20T01:04:56;96246.66;;;10.95;89.73
49451;BME280;35336;48.400;10.886;2023-05-20T01:05:11;96260.03;;;11.09;89.66
49451;BME280;35336;48.400;10.886;2023-05-20T01:05:27;96252.63;;;10.98;89.78
49451;BME280;35336;48.400;10.886;2023-05-20T01:05:42;96255.94;;;11.00;89.67
49451;BME280;35336;48.400;10.886;2023-05-20T01:05:57;96263.34;;;11.04;89.63
49451;BME280;35336;48.400;10.886;2023-05-20T01:06:13;96254.72;;;11.02;89.75
49451;BME280;35336;48.400;10.886;2023-05-20T01:06:28;96255.34;;;11.04;89.67
49451;BME280;35336;48.400;10.886;2023-05-20T01:06:44;96252.25;;;11.01;89.62
49451;BME280;35336;48.400;10.886;2023-05-20T01:07:02;96254.06;;;11.00;89.74
49451;BME280;35336;48.400;10.886;2023-05-20T01:07:18;96259.19;;;11.02;89.97
49451;BME280;35336;48.400;10.886;2023-05-20T01:07:33;96260.03;;;11.02;90.13
49451;BME280;35336;48.400;10.886;2023-05-20T01:07:48;96247.31;;;10.98;90.01
49451;BME280;35336;48.400;10.886;2023-05-20T01:08:04;96249.75;;;10.99;89.82
49451;BME280;35336;48.400;10.886;2023-05-20T01:08:20;96248.13;;;10.98;89.90
49451;BME280;35336;48.400;10.886;2023-05-20T01:08:36;96250.38;;;11.01;90.09
49451;BME280;35336;48.400;10.886;2023-05-20T01:08:51;96249.16;;;10.97;90.33
49451;BME280;35336;48.400;10.886;2023-05-20T01:09:07;96253.06;;;11.01;90.36
49451;BME280;35336;48.400;10.886;2023-05-20T01:09:23;96256.75;;;11.00;90.52
49451;BME280;35336;48.400;10.886;2023-05-20T01:09:38;96256.75;;;11.00;90.58
49451;BME280;35336;48.400;10.886;2023-05-20T01:09:54;96246.06;;;10.93;90.32
49451;BME280;35336;48.400;10.886;2023-05-20T01:10:09;96253.44;;;10.98;90.34
49451;BME280;35336;48.400;10.886;2023-05-20T01:10:27;96246.88;;;10.94;90.69
49451;BME280;35336;48.400;10.886;2023-05-20T01:10:45;96255.31;;;10.98;90.69
49451;BME280;35336;48.400;10.886;2023-05-20T01:11:10;96251.41;;;11.00;90.64
49451;BME280;35336;48.400;10.886;2023-05-20T01:11:43;96240.53;;;10.95;90.59
49451;BME280;35336;48.400;10.886;2023-05-20T01:12:05;96236.22;;;10.94;90.64
49451;BME280;35336;48.400;10.886;2023-05-20T01:12:30;96255.94;;;11.00;90.35
49451;BME280;35336;48.400;10.886;2023-05-20T01:12:53;96237.84;;;10.95;90.57
49451;BME280;35336;48.400;10.886;2023-05-20T01:13:14;96244.03;;;11.02;90.28
49451;BME280;35336;48.400;10.886;2023-05-20T01:13:36;96256.34;;;11.03;90.10
49451;BME280;35336;48.400;10.886;2023-05-20T01:13:57;96244.25;;;11.01;90.22
49451;BME280;35336;48.400;10.886;2023-05-20T01:14:16;96249.38;;;11.02;90.30
49451;BME280;35336;48.400;10.886;2023-05-20T01:14:36;96248.53;;;11.02;90.23
49451;BME280;35336;48.400;10.886;2023-05-20T01:15:09;96251.81;;;11.04;90.43
49451;BME280;35336;48.400;10.886;2023-05-20T01:15:26;96245.06;;;11.01;90.12
49451;BME280;35336;48.400;10.886;2023-05-20T01:15:42;96233.34;;;10.95;90.27
49451;BME280;35336;48.400;10.886;2023-05-20T01:16:00;96246.50;;;10.97;90.42
49451;BME280;35336;48.400;10.886;2023-05-20T01:16:17;96230.88;;;10.94;90.38
49451;BME280;35336;48.400;10.886;2023-05-20T01:16:34;96246.06;;;11.00;90.08
49451;BME280;35336;48.400;10.886;2023-05-20T01:16:50;96248.13;;;11.05;90.22
49451;BME280;35336;48.400;10.886;2023-05-20T01:17:07;96247.72;;;11.01;90.45
49451;BME280;35336;48.400;10.886;2023-05-20T01:17:25;96244.22;;;10.94;90.37
49451;BME280;35336;48.400;10.886;2023-05-20T01:17:45;96240.09;;;10.91;91.00
49451;BME280;35336;48.400;10.886;2023-05-20T01:18:02;96245.66;;;10.90;90.69
49451;BME280;35336;48.400;10.886;2023-05-20T01:18:17;96252.44;;;10.92;90.82
49451;BME280;35336;48.400;10.886;2023-05-20T01:18:34;96237.41;;;10.85;91.06
49451;BME280;35336;48.400;10.886;2023-05-20T01:18:52;96246.66;;;10.89;91.28
49451;BME280;35336;48.400;10.886;2023-05-20T01:19:21;96252.00;;;10.89;90.92
49451;BME280;35336;48.400;10.886;2023-05-20T01:19:41;96249.13;;;10.90;91.33
49451;BME280;35336;48.400;10.886;2023-05-20T01:20:00;96245.84;;;10.88;91.08
49451;BME280;35336;48.400;10.886;2023-05-20T01:20:15;96248.31;;;10.90;90.98
49451;BME280;35336;48.400;10.886;2023-05-20T01:20:31;96242.75;;;10.85;91.43
49451;BME280;35336;48.400;10.886;2023-05-20T01:20:48;96232.69;;;10.87;91.13
49451;BME280;35336;48.400;10.886;2023-05-20T01:21:06;96241.53;;;10.94;91.25
49451;BME280;35336;48.400;10.886;2023-05-20T01:21:26;96236.59;;;10.91;90.87
49451;BME280;35336;48.400;10.886;2023-05-20T01:21:42;96233.75;;;10.92;90.81
49451;BME280;35336;48.400;10.886;2023-05-20T01:21:59;96242.78;;;10.98;91.04
49451;BME280;35336;48.400;10.886;2023-05-20T01:22:15;96232.09;;;10.98;90.69
49451;BME280;35336;48.400;10.886;2023-05-20T01:22:30;96238.88;;;10.94;90.60
49451;BME280;35336;48.400;10.886;2023-05-20T01:22:46;96241.75;;;10.99;90.89
49451;BME280;35336;48.400;10.886;2023-05-20T01:23:02;96236.41;;;10.99;90.81
49451;BME280;35336;48.400;10.886;2023-05-20T01:23:17;96232.09;;;10.98;90.93
49451;BME280;35336;48.400;10.886;2023-05-20T01:23:37;96235.41;;;11.00;90.72
49451;BME280;35336;48.400;10.886;2023-05-20T01:23:53;96241.78;;;11.06;90.49
49451;BME280;35336;48.400;10.886;2023-05-20T01:24:08;96223.28;;;10.98;90.30